Meredithville, VA

8:50 AM EDT on September 02, 2014 (GMT -0400)
Greenwood Farms | Change Station
CLOSE
Current Station
Personal Weather Station
Location: South Hill, VA
Elevation: 380 ft
Nearby Weather Stations

Elev 380 ft 36.74 °N, 78.13 °W | Updated 4 seconds ago

Clear
Clear
77.9 °F
Feels Like 78 °F
N
2.2
Wind Variable Wind from West
Gusts 2.2 mph

Today
High -- | Low -- °F
--% Chance of Precip.
Yesterday
High -- | Low -- °F
Precip. -- in
6:43 AM 7:38 PM
Waxing Crescent, 51% visible
Pressure 30.03 in
Visibility 10.0 miles
Clouds Clear
Heat Index 78 °F
Dew Point 46 °F
Humidity 32%
Rainfall 0.00 in
Snow Depth Not available.
UV 2 out of 12
Pollen 10.20 out of 12
Air Quality Not available.
Flu Activity Not available.
METAR KPTB 021235Z AUTO 22005KT 10SM CLR 25/22 A3003 RMK AO2 T02520216

More Conditions Fewer Conditions

Pressure 30.03 in
Visibility 10.0 miles
Clouds Clear
Heat Index 78 °F
Dew Point 46 °F
Humidity 32%
Rainfall 0.00 in
Snow Depth Not available.
UV 2 out of 12
Pollen 10.20 out of 12
Air Quality Not available.
Flu Activity Not available.
METAR KPTB 021235Z AUTO 22005KT 10SM CLR 25/22 A3003 RMK AO2 T02520216

More Conditions Fewer Conditions

10-Day Weather Forecast

Almanac

Astronomy

Sep. 02, 2014 Rise Set
Actual Time 6:43 AM EDT 7:38 PM EDT
Civil Twilight 6:17 AM EDT 8:05 PM EDT
Nautical Twilight 5:45 AM EDT 8:36 PM EDT
Astronomical Twilight 5:13 AM EDT 9:08 PM EDT
Moon 2:15 PM EDT No Moon Set
Length of Visible Light 13h 47m
Length of Day
12h 55m
Tomorrow will be 2m 15s shorter.
Waxing Crescent, 51% of the Moon is Illuminated
Today
Waxing Crescent
Sep 8
Full
Sep 15
Last Quarter
Sep 24
New
Oct 1
First Quarter

Today's Extremes

State Highs State Lows

Community

WunderPhotos

Upload Photos

1,749,642 photos uploaded!

Nearby

Snow Depth

Station Depth Elevation
No new snow has been reported.

Earthquake Activity

City Distance Mag. Time & Date
No recent earthquake activity has been reported nearby.
Minimum magnitude displayed is 2.5.

Coastal Water Temperatures

Place Temperature
No Stations Reporting

Nearby Weather Stations